sensor_id;sensor_type;location;lat;lon;timestamp;P1;durP1;ratioP1;P2;durP2;ratioP2
13999;SDS011;7075;53.574;10.054;2022-07-18T00:00:48;3.53;;;2.67;;
13999;SDS011;7075;53.574;10.054;2022-07-18T00:03:13;4.03;;;3.00;;
13999;SDS011;7075;53.574;10.054;2022-07-18T00:05:39;4.50;;;3.10;;
13999;SDS011;7075;53.574;10.054;2022-07-18T00:08:04;4.75;;;3.00;;
13999;SDS011;7075;53.574;10.054;2022-07-18T00:10:30;3.70;;;3.13;;
13999;SDS011;7075;53.574;10.054;2022-07-18T00:12:56;6.47;;;3.42;;
13999;SDS011;7075;53.574;10.054;2022-07-18T00:15:21;3.73;;;3.17;;
13999;SDS011;7075;53.574;10.054;2022-07-18T00:17:47;3.03;;;2.70;;
13999;SDS011;7075;53.574;10.054;2022-07-18T00:20:12;4.60;;;3.03;;
13999;SDS011;7075;53.574;10.054;2022-07-18T00:22:39;3.38;;;3.08;;
13999;SDS011;7075;53.574;10.054;2022-07-18T00:25:05;5.00;;;3.53;;
13999;SDS011;7075;53.574;10.054;2022-07-18T00:27:32;4.03;;;3.25;;
13999;SDS011;7075;53.574;10.054;2022-07-18T00:29:58;3.92;;;3.00;;
13999;SDS011;7075;53.574;10.054;2022-07-18T00:32:24;5.57;;;3.43;;
13999;SDS011;7075;53.574;10.054;2022-07-18T00:34:49;4.40;;;2.85;;
13999;SDS011;7075;53.574;10.054;2022-07-18T00:37:15;3.50;;;3.17;;
13999;SDS011;7075;53.574;10.054;2022-07-18T00:39:40;3.38;;;2.90;;
13999;SDS011;7075;53.574;10.054;2022-07-18T00:42:06;4.63;;;2.93;;
13999;SDS011;7075;53.574;10.054;2022-07-18T00:44:31;4.40;;;3.03;;
13999;SDS011;7075;53.574;10.054;2022-07-18T00:46:59;4.32;;;3.15;;
13999;SDS011;7075;53.574;10.054;2022-07-18T00:49:26;4.50;;;3.00;;
13999;SDS011;7075;53.574;10.054;2022-07-18T00:51:52;3.53;;;3.03;;
13999;SDS011;7075;53.574;10.054;2022-07-18T00:54:18;4.00;;;3.40;;
13999;SDS011;7075;53.574;10.054;2022-07-18T00:56:44;4.22;;;2.95;;
13999;SDS011;7075;53.574;10.054;2022-07-18T00:59:10;5.40;;;3.22;;
13999;SDS011;7075;53.574;10.054;2022-07-18T01:01:37;4.82;;;3.35;;
13999;SDS011;7075;53.574;10.054;2022-07-18T01:04:12;3.70;;;2.90;;
13999;SDS011;7075;53.574;10.054;2022-07-18T01:06:43;5.43;;;3.15;;
13999;SDS011;7075;53.574;10.054;2022-07-18T01:09:09;4.63;;;3.07;;
13999;SDS011;7075;53.574;10.054;2022-07-18T01:11:34;4.10;;;3.07;;
13999;SDS011;7075;53.574;10.054;2022-07-18T01:14:01;4.72;;;3.30;;
13999;SDS011;7075;53.574;10.054;2022-07-18T01:16:28;5.00;;;2.97;;
13999;SDS011;7075;53.574;10.054;2022-07-18T01:18:54;4.20;;;3.17;;
13999;SDS011;7075;53.574;10.054;2022-07-18T01:21:20;4.82;;;3.40;;
13999;SDS011;7075;53.574;10.054;2022-07-18T01:23:45;4.27;;;3.10;;
13999;SDS011;7075;53.574;10.054;2022-07-18T01:26:14;4.05;;;2.90;;
13999;SDS011;7075;53.574;10.054;2022-07-18T01:28:42;5.22;;;3.38;;
13999;SDS011;7075;53.574;10.054;2022-07-18T01:31:09;4.87;;;2.93;;
13999;SDS011;7075;53.574;10.054;2022-07-18T01:33:35;4.47;;;2.90;;
13999;SDS011;7075;53.574;10.054;2022-07-18T01:36:01;3.83;;;3.05;;
13999;SDS011;7075;53.574;10.054;2022-07-18T01:38:29;6.57;;;3.60;;
13999;SDS011;7075;53.574;10.054;2022-07-18T01:40:55;4.63;;;2.70;;
13999;SDS011;7075;53.574;10.054;2022-07-18T01:43:24;4.00;;;3.42;;
13999;SDS011;7075;53.574;10.054;2022-07-18T01:45:51;4.77;;;3.13;;
13999;SDS011;7075;53.574;10.054;2022-07-18T01:48:17;5.55;;;3.58;;
13999;SDS011;7075;53.574;10.054;2022-07-18T01:50:44;6.18;;;3.28;;
13999;SDS011;7075;53.574;10.054;2022-07-18T01:53:10;4.50;;;3.40;;
13999;SDS011;7075;53.574;10.054;2022-07-18T01:55:36;4.27;;;3.43;;
13999;SDS011;7075;53.574;10.054;2022-07-18T01:58:02;4.53;;;3.15;;
13999;SDS011;7075;53.574;10.054;2022-07-18T02:00:28;5.53;;;3.27;;
13999;SDS011;7075;53.574;10.054;2022-07-18T02:02:54;3.83;;;2.93;;
13999;SDS011;7075;53.574;10.054;2022-07-18T02:05:19;5.18;;;3.17;;
13999;SDS011;7075;53.574;10.054;2022-07-18T02:07:45;4.50;;;2.90;;
13999;SDS011;7075;53.574;10.054;2022-07-18T02:10:20;4.47;;;3.30;;
13999;SDS011;7075;53.574;10.054;2022-07-18T02:12:47;3.95;;;2.90;;
13999;SDS011;7075;53.574;10.054;2022-07-18T02:15:13;4.13;;;3.08;;
13999;SDS011;7075;53.574;10.054;2022-07-18T02:17:40;3.88;;;2.90;;
13999;SDS011;7075;53.574;10.054;2022-07-18T02:20:08;3.85;;;3.03;;
13999;SDS011;7075;53.574;10.054;2022-07-18T02:22:35;3.42;;;2.83;;
13999;SDS011;7075;53.574;10.054;2022-07-18T02:25:00;4.33;;;3.10;;
13999;SDS011;7075;53.574;10.054;2022-07-18T02:27:26;3.50;;;2.50;;
13999;SDS011;7075;53.574;10.054;2022-07-18T02:29:52;4.23;;;2.77;;
13999;SDS011;7075;53.574;10.054;2022-07-18T02:32:17;3.50;;;2.80;;
13999;SDS011;7075;53.574;10.054;2022-07-18T02:34:43;4.37;;;2.67;;
13999;SDS011;7075;53.574;10.054;2022-07-18T02:37:09;3.50;;;2.67;;
13999;SDS011;7075;53.574;10.054;2022-07-18T02:39:35;4.38;;;2.78;;
13999;SDS011;7075;53.574;10.054;2022-07-18T02:42:02;3.83;;;3.10;;
13999;SDS011;7075;53.574;10.054;2022-07-18T02:44:27;2.97;;;2.65;;
13999;SDS011;7075;53.574;10.054;2022-07-18T02:46:53;4.60;;;2.78;;
13999;SDS011;7075;53.574;10.054;2022-07-18T02:49:19;3.87;;;2.63;;
13999;SDS011;7075;53.574;10.054;2022-07-18T02:52:01;3.50;;;2.50;;
13999;SDS011;7075;53.574;10.054;2022-07-18T02:54:29;3.30;;;2.67;;
13999;SDS011;7075;53.574;10.054;2022-07-18T02:56:56;3.72;;;2.67;;
13999;SDS011;7075;53.574;10.054;2022-07-18T02:59:22;4.35;;;2.95;;
13999;SDS011;7075;53.574;10.054;2022-07-18T03:01:48;4.07;;;2.87;;
13999;SDS011;7075;53.574;10.054;2022-07-18T03:04:14;4.07;;;2.90;;
13999;SDS011;7075;53.574;10.054;2022-07-18T03:06:41;4.88;;;2.95;;
13999;SDS011;7075;53.574;10.054;2022-07-18T03:09:06;4.37;;;2.83;;
13999;SDS011;7075;53.574;10.054;2022-07-18T03:11:32;4.35;;;2.70;;
13999;SDS011;7075;53.574;10.054;2022-07-18T03:13:58;3.80;;;3.10;;
13999;SDS011;7075;53.574;10.054;2022-07-18T03:16:24;5.03;;;2.70;;
13999;SDS011;7075;53.574;10.054;2022-07-18T03:18:49;4.55;;;3.03;;
13999;SDS011;7075;53.574;10.054;2022-07-18T03:21:15;3.47;;;2.77;;
13999;SDS011;7075;53.574;10.054;2022-07-18T03:23:41;3.13;;;2.70;;
13999;SDS011;7075;53.574;10.054;2022-07-18T03:26:06;3.22;;;2.53;;
13999;SDS011;7075;53.574;10.054;2022-07-18T03:28:32;3.00;;;2.70;;
13999;SDS011;7075;53.574;10.054;2022-07-18T03:30:57;4.23;;;2.87;;
13999;SDS011;7075;53.574;10.054;2022-07-18T03:33:24;4.35;;;2.70;;
13999;SDS011;7075;53.574;10.054;2022-07-18T03:35:50;3.15;;;2.50;;
13999;SDS011;7075;53.574;10.054;2022-07-18T03:38:15;3.07;;;2.77;;
13999;SDS011;7075;53.574;10.054;2022-07-18T03:40:41;5.05;;;2.88;;
13999;SDS011;7075;53.574;10.054;2022-07-18T03:43:07;5.40;;;3.00;;
13999;SDS011;7075;53.574;10.054;2022-07-18T03:45:32;5.30;;;3.10;;
13999;SDS011;7075;53.574;10.054;2022-07-18T03:47:58;5.13;;;3.10;;
13999;SDS011;7075;53.574;10.054;2022-07-18T03:50:23;6.50;;;3.50;;
13999;SDS011;7075;53.574;10.054;2022-07-18T03:52:49;4.10;;;3.20;;
13999;SDS011;7075;53.574;10.054;2022-07-18T03:55:15;3.70;;;3.17;;
13999;SDS011;7075;53.574;10.054;2022-07-18T03:57:41;3.97;;;3.08;;
13999;SDS011;7075;53.574;10.054;2022-07-18T04:00:06;4.00;;;3.50;;
13999;SDS011;7075;53.574;10.054;2022-07-18T04:02:37;5.13;;;3.65;;
13999;SDS011;7075;53.574;10.054;2022-07-18T04:05:06;4.65;;;3.17;;
13999;SDS011;7075;53.574;10.054;2022-07-18T04:07:33;4.72;;;3.20;;
13999;SDS011;7075;53.574;10.054;2022-07-18T04:09:58;5.85;;;3.50;;
13999;SDS011;7075;53.574;10.054;2022-07-18T04:12:24;4.87;;;3.33;;
13999;SDS011;7075;53.574;10.054;2022-07-18T04:14:50;6.60;;;3.90;;
13999;SDS011;7075;53.574;10.054;2022-07-18T04:17:15;5.22;;;3.50;;
13999;SDS011;7075;53.574;10.054;2022-07-18T04:19:41;5.97;;;3.53;;
13999;SDS011;7075;53.574;10.054;2022-07-18T04:22:06;4.43;;;3.47;;
13999;SDS011;7075;53.574;10.054;2022-07-18T04:24:32;6.57;;;3.70;;
13999;SDS011;7075;53.574;10.054;2022-07-18T04:26:57;5.28;;;3.50;;
13999;SDS011;7075;53.574;10.054;2022-07-18T04:29:23;4.80;;;3.77;;
13999;SDS011;7075;53.574;10.054;2022-07-18T04:31:49;4.00;;;3.43;;
13999;SDS011;7075;53.574;10.054;2022-07-18T04:34:14;5.35;;;3.88;;
13999;SDS011;7075;53.574;10.054;2022-07-18T04:36:40;5.05;;;3.55;;
13999;SDS011;7075;53.574;10.054;2022-07-18T04:39:05;5.00;;;3.70;;
13999;SDS011;7075;53.574;10.054;2022-07-18T04:41:31;6.13;;;3.70;;
13999;SDS011;7075;53.574;10.054;2022-07-18T04:43:56;4.70;;;3.67;;
13999;SDS011;7075;53.574;10.054;2022-07-18T04:46:22;4.93;;;4.00;;
13999;SDS011;7075;53.574;10.054;2022-07-18T04:48:47;6.13;;;4.07;;
13999;SDS011;7075;53.574;10.054;2022-07-18T04:51:14;7.77;;;3.93;;
13999;SDS011;7075;53.574;10.054;2022-07-18T04:53:40;5.22;;;4.07;;
13999;SDS011;7075;53.574;10.054;2022-07-18T04:56:06;7.13;;;4.18;;
13999;SDS011;7075;53.574;10.054;2022-07-18T04:58:31;5.50;;;3.90;;
13999;SDS011;7075;53.574;10.054;2022-07-18T05:00:57;4.17;;;3.53;;
13999;SDS011;7075;53.574;10.054;2022-07-18T05:03:22;5.32;;;4.10;;
13999;SDS011;7075;53.574;10.054;2022-07-18T05:05:48;4.97;;;3.77;;
13999;SDS011;7075;53.574;10.054;2022-07-18T05:08:13;6.43;;;3.90;;
13999;SDS011;7075;53.574;10.054;2022-07-18T05:10:39;7.90;;;4.20;;
13999;SDS011;7075;53.574;10.054;2022-07-18T05:13:05;5.10;;;3.27;;
13999;SDS011;7075;53.574;10.054;2022-07-18T05:15:30;6.50;;;3.87;;
13999;SDS011;7075;53.574;10.054;2022-07-18T05:17:56;4.10;;;3.42;;
13999;SDS011;7075;53.574;10.054;2022-07-18T05:20:22;5.03;;;3.40;;
13999;SDS011;7075;53.574;10.054;2022-07-18T05:22:49;5.50;;;3.92;;
13999;SDS011;7075;53.574;10.054;2022-07-18T05:25:16;4.18;;;3.70;;
13999;SDS011;7075;53.574;10.054;2022-07-18T05:27:42;4.70;;;3.90;;
13999;SDS011;7075;53.574;10.054;2022-07-18T05:30:09;5.63;;;3.45;;
13999;SDS011;7075;53.574;10.054;2022-07-18T05:32:37;5.32;;;3.80;;
13999;SDS011;7075;53.574;10.054;2022-07-18T05:35:04;4.85;;;3.67;;
13999;SDS011;7075;53.574;10.054;2022-07-18T05:37:30;6.53;;;4.10;;
13999;SDS011;7075;53.574;10.054;2022-07-18T05:39:56;5.80;;;4.00;;
13999;SDS011;7075;53.574;10.054;2022-07-18T05:42:21;5.80;;;3.88;;
13999;SDS011;7075;53.574;10.054;2022-07-18T05:44:47;4.63;;;3.60;;
13999;SDS011;7075;53.574;10.054;2022-07-18T05:47:13;3.87;;;3.10;;
13999;SDS011;7075;53.574;10.054;2022-07-18T05:49:38;5.20;;;3.53;;
13999;SDS011;7075;53.574;10.054;2022-07-18T05:52:04;5.25;;;4.03;;
13999;SDS011;7075;53.574;10.054;2022-07-18T05:54:31;5.90;;;3.45;;
13999;SDS011;7075;53.574;10.054;2022-07-18T05:56:56;6.05;;;3.95;;
13999;SDS011;7075;53.574;10.054;2022-07-18T05:59:22;5.00;;;3.30;;
13999;SDS011;7075;53.574;10.054;2022-07-18T06:01:48;6.07;;;4.17;;
13999;SDS011;7075;53.574;10.054;2022-07-18T06:04:14;4.90;;;3.50;;
13999;SDS011;7075;53.574;10.054;2022-07-18T06:06:39;4.57;;;3.72;;
13999;SDS011;7075;53.574;10.054;2022-07-18T06:09:05;5.22;;;4.03;;
13999;SDS011;7075;53.574;10.054;2022-07-18T06:11:31;6.83;;;3.60;;
13999;SDS011;7075;53.574;10.054;2022-07-18T06:13:56;5.05;;;3.65;;
13999;SDS011;7075;53.574;10.054;2022-07-18T06:16:22;6.40;;;3.90;;
13999;SDS011;7075;53.574;10.054;2022-07-18T06:18:48;6.40;;;3.95;;
13999;SDS011;7075;53.574;10.054;2022-07-18T06:21:14;6.40;;;4.37;;
13999;SDS011;7075;53.574;10.054;2022-07-18T06:23:39;5.20;;;3.63;;
13999;SDS011;7075;53.574;10.054;2022-07-18T06:26:05;4.78;;;4.00;;
13999;SDS011;7075;53.574;10.054;2022-07-18T06:28:31;4.93;;;3.70;;
13999;SDS011;7075;53.574;10.054;2022-07-18T06:30:56;5.13;;;4.00;;
13999;SDS011;7075;53.574;10.054;2022-07-18T06:33:22;6.72;;;4.57;;
13999;SDS011;7075;53.574;10.054;2022-07-18T06:35:48;7.20;;;4.38;;
13999;SDS011;7075;53.574;10.054;2022-07-18T06:38:14;7.03;;;4.20;;
13999;SDS011;7075;53.574;10.054;2022-07-18T06:40:40;8.50;;;4.70;;
13999;SDS011;7075;53.574;10.054;2022-07-18T06:43:06;4.80;;;3.70;;
13999;SDS011;7075;53.574;10.054;2022-07-18T06:45:32;6.07;;;4.13;;
13999;SDS011;7075;53.574;10.054;2022-07-18T06:47:58;7.50;;;4.10;;
13999;SDS011;7075;53.574;10.054;2022-07-18T06:50:24;5.93;;;4.33;;
13999;SDS011;7075;53.574;10.054;2022-07-18T06:52:49;6.03;;;3.97;;
13999;SDS011;7075;53.574;10.054;2022-07-18T06:55:15;3.73;;;3.37;;
13999;SDS011;7075;53.574;10.054;2022-07-18T06:57:41;4.20;;;3.43;;
13999;SDS011;7075;53.574;10.054;2022-07-18T07:00:08;6.07;;;4.40;;
13999;SDS011;7075;53.574;10.054;2022-07-18T07:02:43;6.47;;;4.53;;
13999;SDS011;7075;53.574;10.054;2022-07-18T07:05:10;5.97;;;4.63;;
13999;SDS011;7075;53.574;10.054;2022-07-18T07:07:37;5.28;;;3.72;;
13999;SDS011;7075;53.574;10.054;2022-07-18T07:10:02;5.45;;;4.00;;
13999;SDS011;7075;53.574;10.054;2022-07-18T07:12:28;6.30;;;4.35;;
13999;SDS011;7075;53.574;10.054;2022-07-18T07:14:54;3.92;;;3.53;;
13999;SDS011;7075;53.574;10.054;2022-07-18T07:17:19;7.83;;;4.70;;
13999;SDS011;7075;53.574;10.054;2022-07-18T07:19:45;5.55;;;4.20;;
13999;SDS011;7075;53.574;10.054;2022-07-18T07:22:11;4.07;;;3.67;;
13999;SDS011;7075;53.574;10.054;2022-07-18T07:24:36;5.88;;;3.80;;
13999;SDS011;7075;53.574;10.054;2022-07-18T07:27:03;8.70;;;4.43;;
13999;SDS011;7075;53.574;10.054;2022-07-18T07:29:29;5.88;;;4.22;;
13999;SDS011;7075;53.574;10.054;2022-07-18T07:31:54;7.97;;;4.73;;
13999;SDS011;7075;53.574;10.054;2022-07-18T07:34:20;6.32;;;4.60;;
13999;SDS011;7075;53.574;10.054;2022-07-18T07:36:45;5.03;;;4.30;;
13999;SDS011;7075;53.574;10.054;2022-07-18T07:39:11;5.97;;;4.28;;
13999;SDS011;7075;53.574;10.054;2022-07-18T07:41:37;5.93;;;4.23;;
13999;SDS011;7075;53.574;10.054;2022-07-18T07:44:09;4.97;;;3.90;;
13999;SDS011;7075;53.574;10.054;2022-07-18T07:46:34;9.57;;;4.85;;
13999;SDS011;7075;53.574;10.054;2022-07-18T07:49:00;7.00;;;5.30;;
13999;SDS011;7075;53.574;10.054;2022-07-18T07:51:25;8.30;;;5.00;;
13999;SDS011;7075;53.574;10.054;2022-07-18T07:53:52;8.60;;;4.82;;
13999;SDS011;7075;53.574;10.054;2022-07-18T07:56:18;9.43;;;4.70;;
13999;SDS011;7075;53.574;10.054;2022-07-18T07:58:44;7.47;;;5.28;;
13999;SDS011;7075;53.574;10.054;2022-07-18T08:01:10;7.47;;;4.60;;
13999;SDS011;7075;53.574;10.054;2022-07-18T08:03:37;5.83;;;4.60;;
13999;SDS011;7075;53.574;10.054;2022-07-18T08:06:03;5.97;;;4.68;;
13999;SDS011;7075;53.574;10.054;2022-07-18T08:08:29;6.37;;;5.13;;
13999;SDS011;7075;53.574;10.054;2022-07-18T08:10:55;7.05;;;4.68;;
13999;SDS011;7075;53.574;10.054;2022-07-18T08:13:20;6.23;;;4.87;;
13999;SDS011;7075;53.574;10.054;2022-07-18T08:15:46;9.07;;;5.88;;
13999;SDS011;7075;53.574;10.054;2022-07-18T08:18:12;8.27;;;5.32;;
13999;SDS011;7075;53.574;10.054;2022-07-18T08:20:37;6.22;;;4.82;;
13999;SDS011;7075;53.574;10.054;2022-07-18T08:23:04;6.77;;;4.90;;
13999;SDS011;7075;53.574;10.054;2022-07-18T08:25:33;5.68;;;5.00;;
13999;SDS011;7075;53.574;10.054;2022-07-18T08:28:03;6.32;;;5.28;;
13999;SDS011;7075;53.574;10.054;2022-07-18T08:30:30;8.63;;;5.90;;
13999;SDS011;7075;53.574;10.054;2022-07-18T08:32:56;8.05;;;5.22;;
13999;SDS011;7075;53.574;10.054;2022-07-18T08:35:23;7.63;;;5.30;;
13999;SDS011;7075;53.574;10.054;2022-07-18T08:37:49;6.10;;;4.60;;
13999;SDS011;7075;53.574;10.054;2022-07-18T08:40:15;5.50;;;4.77;;
13999;SDS011;7075;53.574;10.054;2022-07-18T08:42:42;5.13;;;4.63;;
13999;SDS011;7075;53.574;10.054;2022-07-18T08:45:08;5.05;;;4.25;;
13999;SDS011;7075;53.574;10.054;2022-07-18T08:47:34;6.00;;;4.88;;
13999;SDS011;7075;53.574;10.054;2022-07-18T08:50:00;7.65;;;5.10;;
13999;SDS011;7075;53.574;10.054;2022-07-18T08:52:27;5.65;;;4.70;;
13999;SDS011;7075;53.574;10.054;2022-07-18T08:54:59;6.43;;;4.20;;
13999;SDS011;7075;53.574;10.054;2022-07-18T08:57:25;6.43;;;4.53;;
13999;SDS011;7075;53.574;10.054;2022-07-18T08:59:53;7.82;;;4.63;;
13999;SDS011;7075;53.574;10.054;2022-07-18T09:02:23;6.65;;;4.53;;
13999;SDS011;7075;53.574;10.054;2022-07-18T09:04:50;7.47;;;4.97;;
13999;SDS011;7075;53.574;10.054;2022-07-18T09:07:23;5.05;;;4.38;;
13999;SDS011;7075;53.574;10.054;2022-07-18T09:09:55;5.80;;;4.47;;
13999;SDS011;7075;53.574;10.054;2022-07-18T09:12:22;5.93;;;4.55;;
13999;SDS011;7075;53.574;10.054;2022-07-18T09:14:49;5.05;;;4.20;;
13999;SDS011;7075;53.574;10.054;2022-07-18T09:17:16;4.13;;;3.70;;
13999;SDS011;7075;53.574;10.054;2022-07-18T09:19:59;5.95;;;4.22;;
13999;SDS011;7075;53.574;10.054;2022-07-18T09:22:27;7.13;;;4.72;;
13999;SDS011;7075;53.574;10.054;2022-07-18T09:27:41;5.68;;;4.30;;
13999;SDS011;7075;53.574;10.054;2022-07-18T09:32:35;4.70;;;3.80;;
13999;SDS011;7075;53.574;10.054;2022-07-18T09:35:06;4.88;;;4.03;;
13999;SDS011;7075;53.574;10.054;2022-07-18T09:37:36;4.35;;;3.95;;
13999;SDS011;7075;53.574;10.054;2022-07-18T09:40:15;8.40;;;4.57;;
13999;SDS011;7075;53.574;10.054;2022-07-18T09:42:42;4.85;;;4.22;;
13999;SDS011;7075;53.574;10.054;2022-07-18T09:45:08;4.47;;;3.90;;
13999;SDS011;7075;53.574;10.054;2022-07-18T09:47:50;5.53;;;4.60;;
13999;SDS011;7075;53.574;10.054;2022-07-18T09:50:19;10.07;;;4.72;;
13999;SDS011;7075;53.574;10.054;2022-07-18T09:53:08;7.43;;;4.45;;
13999;SDS011;7075;53.574;10.054;2022-07-18T09:55:38;4.95;;;4.20;;
13999;SDS011;7075;53.574;10.054;2022-07-18T09:58:10;7.20;;;4.53;;
13999;SDS011;7075;53.574;10.054;2022-07-18T10:00:37;9.57;;;4.47;;
13999;SDS011;7075;53.574;10.054;2022-07-18T10:03:05;6.35;;;3.83;;
13999;SDS011;7075;53.574;10.054;2022-07-18T10:05:33;7.45;;;4.47;;
13999;SDS011;7075;53.574;10.054;2022-07-18T10:08:00;6.40;;;4.00;;
13999;SDS011;7075;53.574;10.054;2022-07-18T10:10:27;5.90;;;3.85;;
13999;SDS011;7075;53.574;10.054;2022-07-18T10:12:54;6.07;;;4.03;;
13999;SDS011;7075;53.574;10.054;2022-07-18T10:15:22;4.87;;;3.63;;
13999;SDS011;7075;53.574;10.054;2022-07-18T10:17:50;6.38;;;4.03;;
13999;SDS011;7075;53.574;10.054;2022-07-18T10:20:16;6.05;;;4.20;;
13999;SDS011;7075;53.574;10.054;2022-07-18T10:22:42;7.32;;;4.57;;
13999;SDS011;7075;53.574;10.054;2022-07-18T10:25:13;5.70;;;4.00;;
13999;SDS011;7075;53.574;10.054;2022-07-18T10:28:04;3.63;;;3.33;;
13999;SDS011;7075;53.574;10.054;2022-07-18T10:30:52;3.63;;;3.10;;
13999;SDS011;7075;53.574;10.054;2022-07-18T10:33:38;9.57;;;4.80;;
13999;SDS011;7075;53.574;10.054;2022-07-18T10:36:06;8.07;;;5.27;;
13999;SDS011;7075;53.574;10.054;2022-07-18T10:38:32;5.03;;;3.70;;
13999;SDS011;7075;53.574;10.054;2022-07-18T10:41:01;7.63;;;4.32;;
13999;SDS011;7075;53.574;10.054;2022-07-18T10:43:32;5.43;;;4.32;;
13999;SDS011;7075;53.574;10.054;2022-07-18T10:46:00;8.25;;;4.65;;
13999;SDS011;7075;53.574;10.054;2022-07-18T10:51:08;7.75;;;4.43;;
13999;SDS011;7075;53.574;10.054;2022-07-18T10:57:05;6.97;;;4.43;;
13999;SDS011;7075;53.574;10.054;2022-07-18T10:59:15;6.60;;;4.30;;
13999;SDS011;7075;53.574;10.054;2022-07-18T11:01:48;6.68;;;4.57;;
13999;SDS011;7075;53.574;10.054;2022-07-18T11:04:24;6.18;;;4.43;;
13999;SDS011;7075;53.574;10.054;2022-07-18T11:07:08;6.25;;;4.55;;
13999;SDS011;7075;53.574;10.054;2022-07-18T11:09:36;7.30;;;4.22;;
13999;SDS011;7075;53.574;10.054;2022-07-18T11:15:12;5.05;;;4.13;;
13999;SDS011;7075;53.574;10.054;2022-07-18T11:25:39;9.00;;;5.60;;
13999;SDS011;7075;53.574;10.054;2022-07-18T11:28:09;7.87;;;4.77;;
13999;SDS011;7075;53.574;10.054;2022-07-18T11:30:36;5.57;;;4.65;;
13999;SDS011;7075;53.574;10.054;2022-07-18T11:33:02;5.63;;;4.20;;
13999;SDS011;7075;53.574;10.054;2022-07-18T11:35:28;5.05;;;4.28;;
13999;SDS011;7075;53.574;10.054;2022-07-18T11:37:55;6.50;;;4.03;;
13999;SDS011;7075;53.574;10.054;2022-07-18T11:40:20;4.27;;;3.47;;
13999;SDS011;7075;53.574;10.054;2022-07-18T11:42:47;6.53;;;4.28;;
13999;SDS011;7075;53.574;10.054;2022-07-18T11:45:14;7.53;;;4.35;;
13999;SDS011;7075;53.574;10.054;2022-07-18T11:47:50;7.10;;;4.20;;
13999;SDS011;7075;53.574;10.054;2022-07-18T11:50:18;5.70;;;4.25;;
13999;SDS011;7075;53.574;10.054;2022-07-18T11:52:55;5.90;;;3.93;;
13999;SDS011;7075;53.574;10.054;2022-07-18T11:55:31;15.93;;;7.75;;
13999;SDS011;7075;53.574;10.054;2022-07-18T12:00:35;12.32;;;6.32;;
13999;SDS011;7075;53.574;10.054;2022-07-18T12:03:05;9.18;;;4.95;;
13999;SDS011;7075;53.574;10.054;2022-07-18T12:05:33;6.90;;;4.50;;
13999;SDS011;7075;53.574;10.054;2022-07-18T12:11:08;4.95;;;3.92;;
13999;SDS011;7075;53.574;10.054;2022-07-18T12:19:20;4.57;;;3.80;;
13999;SDS011;7075;53.574;10.054;2022-07-18T12:24:24;5.13;;;3.90;;
13999;SDS011;7075;53.574;10.054;2022-07-18T12:35:24;4.57;;;3.88;;
13999;SDS011;7075;53.574;10.054;2022-07-18T12:40:22;4.43;;;3.70;;
13999;SDS011;7075;53.574;10.054;2022-07-18T12:42:49;5.05;;;3.90;;
13999;SDS011;7075;53.574;10.054;2022-07-18T12:45:27;4.93;;;3.70;;
13999;SDS011;7075;53.574;10.054;2022-07-18T12:47:53;4.13;;;3.60;;
13999;SDS011;7075;53.574;10.054;2022-07-18T12:50:18;6.78;;;3.80;;
13999;SDS011;7075;53.574;10.054;2022-07-18T12:52:44;4.97;;;3.47;;
13999;SDS011;7075;53.574;10.054;2022-07-18T12:55:09;3.65;;;3.30;;
13999;SDS011;7075;53.574;10.054;2022-07-18T12:57:35;5.17;;;3.23;;
13999;SDS011;7075;53.574;10.054;2022-07-18T13:00:00;4.80;;;3.43;;
13999;SDS011;7075;53.574;10.054;2022-07-18T13:02:26;3.83;;;3.35;;
13999;SDS011;7075;53.574;10.054;2022-07-18T13:04:52;4.10;;;3.70;;
13999;SDS011;7075;53.574;10.054;2022-07-18T13:07:17;4.83;;;3.70;;
13999;SDS011;7075;53.574;10.054;2022-07-18T13:09:43;4.20;;;3.65;;
13999;SDS011;7075;53.574;10.054;2022-07-18T13:12:09;3.77;;;3.20;;
13999;SDS011;7075;53.574;10.054;2022-07-18T13:14:34;4.00;;;3.15;;
13999;SDS011;7075;53.574;10.054;2022-07-18T13:17:00;4.97;;;3.30;;
13999;SDS011;7075;53.574;10.054;2022-07-18T13:19:26;5.10;;;3.47;;
13999;SDS011;7075;53.574;10.054;2022-07-18T13:21:51;3.88;;;3.17;;
13999;SDS011;7075;53.574;10.054;2022-07-18T13:24:17;4.73;;;3.70;;
13999;SDS011;7075;53.574;10.054;2022-07-18T13:26:43;4.53;;;3.08;;
13999;SDS011;7075;53.574;10.054;2022-07-18T13:29:10;4.55;;;3.60;;
13999;SDS011;7075;53.574;10.054;2022-07-18T13:31:36;3.80;;;2.90;;
13999;SDS011;7075;53.574;10.054;2022-07-18T13:34:01;7.10;;;3.47;;
13999;SDS011;7075;53.574;10.054;2022-07-18T13:36:27;3.20;;;2.67;;
13999;SDS011;7075;53.574;10.054;2022-07-18T13:38:54;3.70;;;2.38;;
13999;SDS011;7075;53.574;10.054;2022-07-18T13:41:20;4.03;;;2.53;;
13999;SDS011;7075;53.574;10.054;2022-07-18T13:43:46;3.07;;;2.40;;
13999;SDS011;7075;53.574;10.054;2022-07-18T13:46:12;4.03;;;2.28;;
13999;SDS011;7075;53.574;10.054;2022-07-18T13:48:38;3.00;;;2.50;;
13999;SDS011;7075;53.574;10.054;2022-07-18T13:51:04;2.95;;;2.45;;
13999;SDS011;7075;53.574;10.054;2022-07-18T13:53:31;3.33;;;2.60;;
13999;SDS011;7075;53.574;10.054;2022-07-18T13:55:57;2.92;;;2.50;;
13999;SDS011;7075;53.574;10.054;2022-07-18T13:58:23;4.32;;;2.63;;
13999;SDS011;7075;53.574;10.054;2022-07-18T14:00:49;3.07;;;2.77;;
13999;SDS011;7075;53.574;10.054;2022-07-18T14:03:14;4.00;;;2.85;;
13999;SDS011;7075;53.574;10.054;2022-07-18T14:05:40;7.03;;;3.28;;
13999;SDS011;7075;53.574;10.054;2022-07-18T14:08:06;3.85;;;2.70;;
13999;SDS011;7075;53.574;10.054;2022-07-18T14:10:32;5.18;;;3.03;;
13999;SDS011;7075;53.574;10.054;2022-07-18T14:12:59;4.72;;;2.90;;
13999;SDS011;7075;53.574;10.054;2022-07-18T14:15:25;6.43;;;2.92;;
13999;SDS011;7075;53.574;10.054;2022-07-18T14:17:51;3.55;;;2.58;;
13999;SDS011;7075;53.574;10.054;2022-07-18T14:20:17;3.05;;;2.45;;
13999;SDS011;7075;53.574;10.054;2022-07-18T14:22:44;4.75;;;3.38;;
13999;SDS011;7075;53.574;10.054;2022-07-18T14:25:11;3.67;;;2.97;;
13999;SDS011;7075;53.574;10.054;2022-07-18T14:27:39;5.97;;;2.83;;
13999;SDS011;7075;53.574;10.054;2022-07-18T14:30:05;2.80;;;2.60;;
13999;SDS011;7075;53.574;10.054;2022-07-18T14:32:32;3.53;;;2.20;;
13999;SDS011;7075;53.574;10.054;2022-07-18T14:34:58;3.87;;;2.70;;
13999;SDS011;7075;53.574;10.054;2022-07-18T14:37:23;2.70;;;2.45;;
13999;SDS011;7075;53.574;10.054;2022-07-18T14:39:49;3.20;;;2.90;;
13999;SDS011;7075;53.574;10.054;2022-07-18T14:42:15;4.07;;;2.80;;
13999;SDS011;7075;53.574;10.054;2022-07-18T14:44:41;3.10;;;2.80;;
13999;SDS011;7075;53.574;10.054;2022-07-18T14:47:06;3.90;;;3.00;;
13999;SDS011;7075;53.574;10.054;2022-07-18T14:49:32;3.38;;;2.83;;
13999;SDS011;7075;53.574;10.054;2022-07-18T14:51:58;5.07;;;2.97;;
13999;SDS011;7075;53.574;10.054;2022-07-18T14:54:27;6.50;;;3.17;;
13999;SDS011;7075;53.574;10.054;2022-07-18T14:56:54;2.83;;;2.57;;
13999;SDS011;7075;53.574;10.054;2022-07-18T14:59:22;3.45;;;2.97;;
13999;SDS011;7075;53.574;10.054;2022-07-18T15:01:47;2.93;;;2.50;;
13999;SDS011;7075;53.574;10.054;2022-07-18T15:04:13;4.25;;;3.05;;
13999;SDS011;7075;53.574;10.054;2022-07-18T15:06:43;3.90;;;3.33;;
13999;SDS011;7075;53.574;10.054;2022-07-18T15:09:09;4.82;;;3.28;;
13999;SDS011;7075;53.574;10.054;2022-07-18T15:11:35;4.38;;;3.33;;
13999;SDS011;7075;53.574;10.054;2022-07-18T15:14:05;3.65;;;2.78;;
13999;SDS011;7075;53.574;10.054;2022-07-18T15:16:30;3.85;;;3.13;;
13999;SDS011;7075;53.574;10.054;2022-07-18T15:18:56;5.07;;;3.30;;
13999;SDS011;7075;53.574;10.054;2022-07-18T15:21:22;3.73;;;3.37;;
13999;SDS011;7075;53.574;10.054;2022-07-18T15:23:47;4.40;;;2.72;;
13999;SDS011;7075;53.574;10.054;2022-07-18T15:26:13;4.13;;;3.00;;
13999;SDS011;7075;53.574;10.054;2022-07-18T15:28:39;4.20;;;3.10;;
13999;SDS011;7075;53.574;10.054;2022-07-18T15:31:04;5.63;;;3.13;;
13999;SDS011;7075;53.574;10.054;2022-07-18T15:33:30;4.07;;;3.23;;